createdAt,value
2022-11-25T00:00:01.471Z,0.00
2022-11-25T00:01:01.720Z,0.00
2022-11-25T00:02:01.981Z,0.00
2022-11-25T00:03:02.293Z,0.00
2022-11-25T00:04:02.556Z,0.00
2022-11-25T00:05:02.805Z,0.00
2022-11-25T00:06:03.055Z,0.00
2022-11-25T00:07:03.312Z,0.00
2022-11-25T00:08:03.552Z,0.00
2022-11-25T00:09:03.817Z,0.00
2022-11-25T00:10:04.054Z,0.00
2022-11-25T00:11:04.305Z,0.00
2022-11-25T00:12:04.535Z,0.00
2022-11-25T00:13:04.796Z,0.00
2022-11-25T00:14:05.083Z,0.00
2022-11-25T00:15:05.328Z,0.00
2022-11-25T00:16:05.641Z,0.00
2022-11-25T00:17:06.011Z,0.00
2022-11-25T00:18:06.173Z,0.00
2022-11-25T00:19:06.415Z,0.00
2022-11-25T00:20:06.655Z,0.00
2022-11-25T00:21:06.915Z,0.00
2022-11-25T00:22:07.177Z,0.00
2022-11-25T00:23:07.435Z,0.00
2022-11-25T00:24:07.699Z,0.00
2022-11-25T00:25:07.935Z,0.00
2022-11-25T00:26:08.181Z,0.00
2022-11-25T00:27:08.416Z,0.00
2022-11-25T00:28:08.696Z,0.00
2022-11-25T00:29:08.947Z,0.00
2022-11-25T00:30:09.187Z,0.00
2022-11-25T00:31:09.437Z,0.00
2022-11-25T00:32:09.730Z,0.00
2022-11-25T00:33:09.987Z,0.00
2022-11-25T00:34:10.239Z,0.00
2022-11-25T00:35:10.488Z,0.00
2022-11-25T00:36:10.733Z,0.00
2022-11-25T00:37:10.966Z,0.00
2022-11-25T00:38:11.229Z,0.00
2022-11-25T00:39:11.459Z,0.00
2022-11-25T00:40:11.710Z,0.00
2022-11-25T00:41:11.960Z,0.00
2022-11-25T00:42:12.200Z,0.00
2022-11-25T00:43:12.451Z,0.00
2022-11-25T00:44:12.750Z,0.00
2022-11-25T00:45:13.052Z,0.00
2022-11-25T00:46:13.339Z,0.00
2022-11-25T00:47:13.594Z,0.00
2022-11-25T00:48:13.850Z,0.00
2022-11-25T00:49:14.089Z,0.00
2022-11-25T00:50:14.355Z,0.00
2022-11-25T00:51:14.602Z,0.00
2022-11-25T00:52:14.840Z,0.00
2022-11-25T00:53:15.120Z,0.00
2022-11-25T00:54:15.371Z,0.00
2022-11-25T00:55:15.621Z,0.00
2022-11-25T00:56:15.871Z,0.00
2022-11-25T00:57:16.132Z,0.00
2022-11-25T00:58:16.390Z,0.00
2022-11-25T00:59:16.639Z,0.00
2022-11-25T01:00:16.901Z,0.00
2022-11-25T01:01:17.183Z,0.00
2022-11-25T01:02:17.552Z,0.00
2022-11-25T01:03:17.752Z,0.00
2022-11-25T01:04:18.002Z,0.00
2022-11-25T01:05:18.253Z,0.00
2022-11-25T01:06:19.250Z,0.00
2022-11-25T01:07:18.898Z,0.00
2022-11-25T01:08:19.123Z,0.00
2022-11-25T01:09:19.407Z,0.00
2022-11-25T01:10:19.653Z,0.00
2022-11-25T01:11:19.902Z,0.00
2022-11-25T01:12:20.154Z,0.00
2022-11-25T01:13:20.427Z,0.00
2022-11-25T01:14:20.676Z,0.00
2022-11-25T01:15:20.934Z,0.00
2022-11-25T01:16:21.259Z,0.00
2022-11-25T01:17:21.448Z,0.00
2022-11-25T01:18:21.720Z,0.00
2022-11-25T01:19:21.955Z,0.00
2022-11-25T01:20:22.204Z,0.00
2022-11-25T01:21:22.454Z,0.00
2022-11-25T01:22:22.676Z,0.00
2022-11-25T01:23:22.957Z,0.00
2022-11-25T01:24:24.203Z,0.00
2022-11-25T01:25:23.475Z,0.00
2022-11-25T01:26:25.168Z,0.00
2022-11-25T01:27:23.968Z,0.00
2022-11-25T01:28:24.230Z,0.00
2022-11-25T01:29:24.481Z,0.00
2022-11-25T01:30:24.735Z,0.00
2022-11-25T01:31:25.050Z,0.00
2022-11-25T01:32:25.309Z,0.00
2022-11-25T01:33:25.587Z,0.00
2022-11-25T01:34:25.848Z,0.00
2022-11-25T01:35:26.080Z,0.00
2022-11-25T01:36:26.347Z,0.00
2022-11-25T01:37:26.618Z,0.00
2022-11-25T01:38:26.916Z,0.00
2022-11-25T01:39:32.469Z,0.00
2022-11-25T01:40:28.401Z,0.00
2022-11-25T01:41:27.719Z,0.00
2022-11-25T01:42:27.968Z,0.00
2022-11-25T01:43:28.228Z,0.00
2022-11-25T01:44:28.477Z,0.00
2022-11-25T01:45:28.970Z,0.00
2022-11-25T01:46:29.069Z,0.00
2022-11-25T01:47:29.329Z,0.00
2022-11-25T01:48:29.618Z,0.00
2022-11-25T01:49:29.886Z,0.00
2022-11-25T01:50:30.114Z,0.00
2022-11-25T01:51:30.360Z,0.00
2022-11-25T01:52:30.588Z,0.00
2022-11-25T01:53:30.854Z,0.00
2022-11-25T01:54:31.092Z,0.00
2022-11-25T01:55:31.349Z,0.00
2022-11-25T01:56:31.583Z,0.00
2022-11-25T01:57:31.811Z,0.00
2022-11-25T01:58:32.071Z,0.00
2022-11-25T01:59:32.345Z,0.00
2022-11-25T02:00:32.605Z,0.00
2022-11-25T02:01:32.928Z,0.00
2022-11-25T02:02:33.240Z,0.00
2022-11-25T02:03:33.571Z,0.00
2022-11-25T02:04:34.329Z,0.00
2022-11-25T02:05:34.207Z,0.00
2022-11-25T02:06:34.403Z,0.00
2022-11-25T02:07:34.690Z,0.00
2022-11-25T02:08:34.957Z,0.00
2022-11-25T02:09:35.195Z,0.00
2022-11-25T02:10:35.443Z,0.00
2022-11-25T02:11:35.705Z,0.00
2022-11-25T02:12:35.961Z,0.00
2022-11-25T02:13:36.205Z,0.00
2022-11-25T02:14:36.774Z,0.00
2022-11-25T02:15:36.723Z,0.00
2022-11-25T02:16:37.107Z,0.00
2022-11-25T02:17:37.319Z,0.00
2022-11-25T02:18:37.562Z,0.00
2022-11-25T02:19:37.805Z,0.00
2022-11-25T02:20:38.087Z,0.00
2022-11-25T02:21:38.337Z,0.00
2022-11-25T02:22:38.587Z,0.00
2022-11-25T02:23:38.855Z,0.00
2022-11-25T02:24:39.107Z,0.00
2022-11-25T02:25:39.355Z,0.00
2022-11-25T02:26:39.660Z,0.00
2022-11-25T02:27:39.926Z,0.00
2022-11-25T02:28:40.187Z,0.00
2022-11-25T02:29:40.435Z,0.00
2022-11-25T02:30:40.682Z,0.00
2022-11-25T02:31:41.001Z,0.00
2022-11-25T02:32:41.257Z,0.00
2022-11-25T02:33:41.507Z,0.00
2022-11-25T02:34:41.741Z,0.00
2022-11-25T02:35:42.000Z,0.00
2022-11-25T02:36:42.259Z,0.00
2022-11-25T02:37:42.535Z,0.00
2022-11-25T02:38:42.777Z,0.00
2022-11-25T02:39:43.029Z,0.00
2022-11-25T02:40:43.269Z,0.00
2022-11-25T02:41:43.516Z,0.00
2022-11-25T02:42:43.792Z,0.00
2022-11-25T02:43:44.061Z,0.00
2022-11-25T02:44:44.298Z,0.00
2022-11-25T02:45:44.611Z,0.00
2022-11-25T02:46:44.899Z,0.00
2022-11-25T02:47:45.149Z,0.00
2022-11-25T02:49:07.959Z,0.00
2022-11-25T02:49:46.670Z,0.00
2022-11-25T02:50:46.001Z,0.00
2022-11-25T02:51:46.261Z,0.00
2022-11-25T02:52:46.522Z,0.00
2022-11-25T02:53:46.813Z,0.00
2022-11-25T02:54:47.060Z,0.00
2022-11-25T02:55:47.313Z,0.00
2022-11-25T02:56:47.570Z,0.00
2022-11-25T02:57:47.834Z,0.00
2022-11-25T02:58:48.100Z,0.00
2022-11-25T02:59:48.361Z,0.00
2022-11-25T03:00:48.651Z,0.00
2022-11-25T03:01:48.905Z,0.00
2022-11-25T03:02:49.181Z,0.00
2022-11-25T03:03:49.452Z,0.00
2022-11-25T03:04:49.681Z,0.00
2022-11-25T03:05:49.948Z,0.00
2022-11-25T03:06:50.206Z,0.00
2022-11-25T03:07:50.510Z,0.00
2022-11-25T03:08:50.763Z,0.00
2022-11-25T03:09:51.004Z,0.00
2022-11-25T03:10:51.243Z,0.00
2022-11-25T03:11:51.493Z,0.00
2022-11-25T03:12:51.730Z,0.00
2022-11-25T03:13:52.005Z,0.00
2022-11-25T03:14:52.243Z,0.00
2022-11-25T03:15:52.514Z,0.00
2022-11-25T03:16:52.827Z,0.00
2022-11-25T03:17:53.084Z,0.00
2022-11-25T03:18:53.345Z,0.00
2022-11-25T03:19:53.584Z,0.00
2022-11-25T03:20:53.826Z,0.00
2022-11-25T03:21:54.081Z,0.00
2022-11-25T03:22:54.306Z,0.00
2022-11-25T03:23:54.575Z,0.00
2022-11-25T03:24:54.836Z,0.00
2022-11-25T03:25:55.096Z,0.00
2022-11-25T03:26:55.345Z,0.00
2022-11-25T03:27:55.587Z,0.00
2022-11-25T03:29:04.814Z,0.00
2022-11-25T03:29:56.111Z,0.00
2022-11-25T03:30:56.360Z,0.00
2022-11-25T03:31:56.657Z,0.00
2022-11-25T03:32:56.860Z,0.00
2022-11-25T03:33:57.113Z,0.00
2022-11-25T03:34:57.391Z,0.00
2022-11-25T03:35:57.641Z,0.00
2022-11-25T03:36:57.935Z,0.00
2022-11-25T03:37:58.208Z,0.00
2022-11-25T03:38:58.456Z,0.00
2022-11-25T03:39:58.681Z,0.00
2022-11-25T03:40:58.962Z,0.00
2022-11-25T03:41:59.182Z,0.00
2022-11-25T03:42:59.474Z,0.00
2022-11-25T03:43:59.813Z,0.00
2022-11-25T03:45:00.042Z,0.00
2022-11-25T03:46:00.352Z,0.00
2022-11-25T03:47:00.613Z,0.00
2022-11-25T03:48:00.863Z,0.00
2022-11-25T03:49:01.102Z,0.00
2022-11-25T03:50:01.383Z,0.00
2022-11-25T03:51:01.607Z,0.00
2022-11-25T03:52:01.972Z,0.00
2022-11-25T03:53:02.203Z,0.00
2022-11-25T03:54:02.462Z,0.00
2022-11-25T03:55:02.683Z,0.00
2022-11-25T03:56:02.954Z,0.00
2022-11-25T03:57:03.199Z,0.00
2022-11-25T03:58:03.443Z,0.00
2022-11-25T03:59:03.756Z,0.00
2022-11-25T04:00:03.972Z,0.00
2022-11-25T04:01:04.296Z,0.00
2022-11-25T04:02:04.594Z,0.00
2022-11-25T04:03:04.848Z,0.00
2022-11-25T04:04:05.104Z,0.00
2022-11-25T04:05:05.360Z,0.00
2022-11-25T04:06:05.639Z,0.00
2022-11-25T04:07:05.897Z,0.00
2022-11-25T04:08:06.194Z,0.00
2022-11-25T04:09:06.877Z,0.00
2022-11-25T04:10:06.795Z,0.00
2022-11-25T04:11:07.025Z,0.00
2022-11-25T04:12:07.274Z,0.00
2022-11-25T04:13:07.537Z,0.00
2022-11-25T04:14:07.816Z,0.00
2022-11-25T04:15:08.106Z,0.00
2022-11-25T04:16:08.347Z,0.00
2022-11-25T04:17:08.645Z,0.00
2022-11-25T04:18:08.911Z,0.00
2022-11-25T04:19:09.194Z,0.00
2022-11-25T04:20:09.439Z,0.00
2022-11-25T04:21:09.679Z,0.00
2022-11-25T04:22:09.968Z,0.00
2022-11-25T04:23:10.212Z,0.00
2022-11-25T04:24:10.468Z,0.00
2022-11-25T04:25:10.715Z,0.00
2022-11-25T04:26:10.958Z,0.00
2022-11-25T04:27:11.186Z,0.00
2022-11-25T04:28:11.442Z,0.00
2022-11-25T04:29:11.681Z,0.00
2022-11-25T04:30:11.930Z,0.00
2022-11-25T04:31:12.285Z,0.00
2022-11-25T04:32:12.419Z,0.00
2022-11-25T04:33:12.679Z,0.00
2022-11-25T04:34:12.917Z,0.00
2022-11-25T04:35:13.168Z,0.00
2022-11-25T04:36:13.390Z,0.00
2022-11-25T04:37:13.642Z,0.00
2022-11-25T04:38:13.869Z,0.00
2022-11-25T04:39:14.136Z,0.00
2022-11-25T04:40:14.362Z,0.00
2022-11-25T04:41:14.623Z,0.00
2022-11-25T04:42:14.852Z,0.00
2022-11-25T04:43:15.100Z,0.00
2022-11-25T04:44:15.349Z,0.00
2022-11-25T04:45:23.841Z,0.00
2022-11-25T04:46:16.862Z,0.00
2022-11-25T04:47:16.092Z,0.00
2022-11-25T04:48:16.403Z,0.00
2022-11-25T04:49:16.641Z,0.00
2022-11-25T04:50:16.876Z,0.00
2022-11-25T04:51:17.144Z,0.00
2022-11-25T04:52:17.383Z,0.00
2022-11-25T04:53:17.613Z,0.00
2022-11-25T04:54:17.851Z,0.00
2022-11-25T04:55:18.084Z,0.00
2022-11-25T04:56:18.313Z,0.00
2022-11-25T04:57:18.577Z,0.00
2022-11-25T04:58:18.823Z,0.00
2022-11-25T04:59:19.097Z,0.00
2022-11-25T05:00:19.352Z,0.00
2022-11-25T05:01:19.676Z,0.00
2022-11-25T05:02:19.848Z,0.00
2022-11-25T05:03:20.084Z,0.00
2022-11-25T05:04:20.369Z,0.00
2022-11-25T05:05:20.605Z,0.00
2022-11-25T05:06:20.854Z,0.00
2022-11-25T05:07:22.080Z,0.00
2022-11-25T05:08:21.417Z,0.00
2022-11-25T05:09:21.668Z,0.00
2022-11-25T05:10:21.897Z,0.00
2022-11-25T05:11:22.146Z,0.00
2022-11-25T05:12:22.417Z,0.00
2022-11-25T05:13:22.671Z,0.00
2022-11-25T05:14:22.914Z,0.00
2022-11-25T05:15:23.168Z,0.00
2022-11-25T05:16:23.515Z,0.00
2022-11-25T05:17:23.759Z,0.00
2022-11-25T05:18:24.009Z,16.00
2022-11-25T05:19:24.288Z,16.00
2022-11-25T05:20:24.532Z,16.00
2022-11-25T05:21:24.837Z,16.00
2022-11-25T05:22:25.191Z,16.00
2022-11-25T05:23:25.478Z,16.00
2022-11-25T05:24:25.740Z,16.00
2022-11-25T05:25:26.025Z,16.00
2022-11-25T05:26:26.268Z,0.00
2022-11-25T05:27:26.506Z,0.00
2022-11-25T05:28:26.763Z,0.00
2022-11-25T05:29:27.046Z,0.00
2022-11-25T05:30:27.377Z,0.00
2022-11-25T05:31:27.546Z,0.00
2022-11-25T05:32:27.779Z,0.00
2022-11-25T05:33:28.026Z,0.00
2022-11-25T05:34:28.310Z,0.00
2022-11-25T05:35:28.558Z,0.00
2022-11-25T05:36:28.799Z,0.00
2022-11-25T05:37:29.042Z,0.00
2022-11-25T05:38:29.288Z,0.00
2022-11-25T05:39:29.594Z,0.00
2022-11-25T05:40:29.800Z,0.00
2022-11-25T05:41:30.099Z,0.00
2022-11-25T05:42:30.336Z,0.00
2022-11-25T05:43:30.592Z,0.00
2022-11-25T05:44:30.842Z,0.00
2022-11-25T05:45:31.082Z,0.00
2022-11-25T05:46:31.373Z,0.00
2022-11-25T05:47:31.632Z,0.00
2022-11-25T05:48:31.872Z,0.00
2022-11-25T05:49:32.123Z,0.00
2022-11-25T05:50:32.383Z,0.00
2022-11-25T05:51:32.632Z,0.00
2022-11-25T05:52:32.875Z,0.00
2022-11-25T05:53:33.116Z,0.00
2022-11-25T05:54:33.475Z,0.00
2022-11-25T05:55:33.592Z,0.00
2022-11-25T05:56:33.851Z,0.00
2022-11-25T05:57:34.093Z,0.00
2022-11-25T05:58:34.387Z,0.00
2022-11-25T05:59:34.612Z,0.00
2022-11-25T06:00:34.863Z,0.00
2022-11-25T06:01:35.091Z,0.00
2022-11-25T06:02:35.423Z,0.00
2022-11-25T06:03:35.718Z,0.00
2022-11-25T06:04:36.329Z,0.00
2022-11-25T06:05:36.205Z,0.00
2022-11-25T06:06:36.435Z,0.00
2022-11-25T06:07:36.816Z,0.00
2022-11-25T06:08:37.050Z,0.00
2022-11-25T06:09:37.339Z,0.00
2022-11-25T06:10:37.574Z,0.00
2022-11-25T06:11:37.862Z,0.00
2022-11-25T06:12:38.113Z,0.00
2022-11-25T06:13:38.346Z,0.00
2022-11-25T06:14:38.763Z,0.00
2022-11-25T06:15:38.898Z,4.00
2022-11-25T06:16:39.127Z,4.00
2022-11-25T06:17:39.385Z,4.00
2022-11-25T06:18:39.616Z,4.00
2022-11-25T06:19:39.898Z,4.00
2022-11-25T06:20:40.136Z,0.00
2022-11-25T06:21:40.367Z,0.00
2022-11-25T06:22:40.618Z,4.00
2022-11-25T06:23:40.838Z,4.00
2022-11-25T06:24:41.208Z,4.00
2022-11-25T06:25:41.471Z,4.00
2022-11-25T06:26:41.738Z,4.00
2022-11-25T06:28:10.611Z,8.00
2022-11-25T06:28:43.215Z,8.00
2022-11-25T06:29:42.507Z,8.00
2022-11-25T06:30:42.748Z,8.00
2022-11-25T06:31:43.050Z,8.00
2022-11-25T06:32:43.263Z,12.00
2022-11-25T06:33:43.619Z,12.00
2022-11-25T06:34:43.890Z,12.00
2022-11-25T06:35:44.148Z,12.00
2022-11-25T06:36:44.441Z,16.00
2022-11-25T06:37:44.672Z,36.00
2022-11-25T06:38:44.999Z,40.00
2022-11-25T06:39:45.357Z,40.00
2022-11-25T06:40:45.490Z,44.00
2022-11-25T06:41:45.753Z,48.00
2022-11-25T06:42:45.991Z,52.00
2022-11-25T06:43:46.250Z,56.00
2022-11-25T06:44:46.544Z,64.00
2022-11-25T06:45:46.810Z,68.00
2022-11-25T06:46:47.091Z,76.00
2022-11-25T06:47:47.392Z,76.00
2022-11-25T06:48:47.621Z,80.00
2022-11-25T06:49:47.892Z,84.00
2022-11-25T06:50:48.132Z,92.00
2022-11-25T06:51:48.462Z,100.00
2022-11-25T06:52:48.701Z,108.00
2022-11-25T06:53:49.039Z,100.00
2022-11-25T06:54:49.320Z,112.00
2022-11-25T06:55:49.564Z,120.00
2022-11-25T06:56:49.827Z,116.00
2022-11-25T06:57:53.253Z,116.00
2022-11-25T06:58:50.385Z,116.00
2022-11-25T06:59:50.672Z,120.00
2022-11-25T07:00:50.904Z,124.00
2022-11-25T07:01:51.195Z,136.00
2022-11-25T07:02:51.528Z,140.00
2022-11-25T07:03:51.774Z,144.00
2022-11-25T07:04:52.066Z,156.00
2022-11-25T07:05:52.394Z,168.00
2022-11-25T07:06:52.667Z,176.00
2022-11-25T07:07:52.994Z,184.00
2022-11-25T07:08:53.162Z,192.00
2022-11-25T07:09:53.450Z,208.00
2022-11-25T07:10:53.707Z,220.00
2022-11-25T07:11:53.964Z,224.00
2022-11-25T07:12:54.226Z,220.00
2022-11-25T07:13:54.476Z,228.00
2022-11-25T07:14:54.740Z,228.00
2022-11-25T07:15:55.065Z,240.00
2022-11-25T07:16:55.372Z,236.00
2022-11-25T07:17:55.629Z,252.00
2022-11-25T07:18:56.000Z,264.00
2022-11-25T07:19:56.151Z,272.00
2022-11-25T07:20:56.408Z,288.00
2022-11-25T07:21:56.671Z,300.00
2022-11-25T07:22:56.921Z,324.00
2022-11-25T07:23:57.186Z,356.00
2022-11-25T07:24:57.450Z,380.00
2022-11-25T07:25:57.718Z,392.00
2022-11-25T07:26:57.976Z,384.00
2022-11-25T07:27:58.247Z,396.00
2022-11-25T07:28:58.532Z,452.00
2022-11-25T07:30:41.119Z,444.00
2022-11-25T07:32:02.478Z,484.00
2022-11-25T07:33:00.654Z,480.00
2022-11-25T07:33:59.967Z,492.00
2022-11-25T07:35:00.246Z,496.00
2022-11-25T07:36:00.493Z,476.00
2022-11-25T07:37:00.740Z,492.00
2022-11-25T07:38:01.994Z,508.00
2022-11-25T07:39:01.313Z,492.00
2022-11-25T07:40:01.597Z,508.00
2022-11-25T07:41:01.859Z,552.00
2022-11-25T07:42:02.113Z,584.00
2022-11-25T07:43:02.375Z,604.00
2022-11-25T07:44:02.625Z,664.00
2022-11-25T07:45:02.922Z,700.00
2022-11-25T07:46:03.236Z,748.00
2022-11-25T07:47:03.494Z,772.00
2022-11-25T07:48:03.744Z,804.00
2022-11-25T07:49:04.019Z,796.00
2022-11-25T07:50:04.292Z,784.00
2022-11-25T07:51:04.534Z,724.00
2022-11-25T07:52:04.793Z,720.00
2022-11-25T07:53:05.057Z,748.00
2022-11-25T07:54:05.314Z,792.00
2022-11-25T07:55:05.585Z,812.00
2022-11-25T07:56:05.847Z,820.00
2022-11-25T07:57:06.150Z,820.00
2022-11-25T07:58:06.448Z,872.00
2022-11-25T07:59:06.763Z,952.00
2022-11-25T08:00:07.066Z,1008.00
2022-11-25T08:01:07.387Z,1080.00
2022-11-25T08:02:07.737Z,1116.00
2022-11-25T08:03:08.102Z,1056.00
2022-11-25T08:04:08.318Z,1004.00
2022-11-25T08:05:08.598Z,920.00
2022-11-25T08:06:08.948Z,940.00
2022-11-25T08:07:09.195Z,996.00
2022-11-25T08:08:09.458Z,1036.00
2022-11-25T08:09:09.658Z,1048.00
2022-11-25T08:10:09.976Z,1044.00
2022-11-25T08:11:10.313Z,1144.00
2022-11-25T08:12:10.648Z,1156.00
2022-11-25T08:13:10.971Z,1156.00
2022-11-25T08:14:11.162Z,1112.00
2022-11-25T08:15:11.826Z,1100.00
2022-11-25T08:16:12.044Z,1092.00
2022-11-25T08:17:12.207Z,1068.00
2022-11-25T08:18:12.390Z,1052.00
2022-11-25T08:19:14.153Z,1132.00
2022-11-25T08:20:13.289Z,1208.00
2022-11-25T08:21:13.143Z,1256.00
2022-11-25T08:22:13.416Z,1304.00
2022-11-25T08:23:13.707Z,1340.00
2022-11-25T08:24:13.992Z,1396.00
2022-11-25T08:25:14.299Z,1448.00
2022-11-25T08:26:14.561Z,1464.00
2022-11-25T08:27:14.830Z,1460.00
2022-11-25T08:28:15.112Z,1464.00
2022-11-25T08:29:15.384Z,1468.00
2022-11-25T08:30:15.715Z,1436.00
2022-11-25T08:31:16.035Z,1456.00
2022-11-25T08:32:16.354Z,1456.00
2022-11-25T08:33:16.659Z,1428.00
2022-11-25T08:34:17.765Z,1376.00
2022-11-25T08:35:17.241Z,1380.00
2022-11-25T08:36:17.534Z,1452.00
2022-11-25T08:37:17.845Z,1516.00
2022-11-25T08:38:18.167Z,1548.00
2022-11-25T08:40:19.835Z,1528.00
2022-11-25T08:41:19.067Z,1576.00
2022-11-25T08:42:19.344Z,1624.00
2022-11-25T08:43:19.664Z,1676.00
2022-11-25T08:44:19.943Z,1788.00
2022-11-25T08:45:20.244Z,1816.00
2022-11-25T08:46:20.568Z,1748.00
2022-11-25T08:47:20.875Z,1852.00
2022-11-25T08:48:21.154Z,1876.00
2022-11-25T08:49:21.427Z,1868.00
2022-11-25T08:50:21.757Z,1884.00
2022-11-25T08:51:22.077Z,1992.00
2022-11-25T08:52:22.339Z,1988.00
2022-11-25T08:53:22.655Z,2016.00
2022-11-25T08:54:22.947Z,1988.00
2022-11-25T08:55:23.268Z,1908.00
2022-11-25T08:56:26.194Z,1904.00
2022-11-25T08:57:23.848Z,1844.00
2022-11-25T08:58:24.157Z,1892.00
2022-11-25T08:59:24.428Z,1896.00
2022-11-25T09:00:24.729Z,1976.00
2022-11-25T09:01:25.171Z,2000.00
2022-11-25T09:02:26.107Z,1948.00
2022-11-25T09:03:25.735Z,1952.00
2022-11-25T09:04:25.868Z,1944.00
2022-11-25T09:05:26.168Z,1888.00
2022-11-25T09:06:26.572Z,1900.00
2022-11-25T09:07:30.667Z,1856.00
2022-11-25T09:08:27.010Z,1908.00
2022-11-25T09:09:27.300Z,2028.00
2022-11-25T09:10:27.582Z,2056.00
2022-11-25T09:11:27.997Z,2060.00
2022-11-25T09:12:28.148Z,2040.00
2022-11-25T09:13:28.434Z,2036.00
2022-11-25T09:14:28.770Z,2004.00
2022-11-25T09:15:28.995Z,1952.00
2022-11-25T09:16:29.362Z,2032.00
2022-11-25T09:17:29.562Z,2068.00
2022-11-25T09:18:29.851Z,2148.00
2022-11-25T09:19:30.133Z,2164.00
2022-11-25T09:20:30.444Z,2160.00
2022-11-25T09:21:30.747Z,2184.00
2022-11-25T09:22:31.032Z,2184.00
2022-11-25T09:23:31.303Z,2164.00
2022-11-25T09:24:31.601Z,2192.00
2022-11-25T09:25:31.883Z,2172.00
2022-11-25T09:26:32.166Z,2244.00
2022-11-25T09:27:32.537Z,2324.00
2022-11-25T09:28:32.849Z,2328.00
2022-11-25T09:29:42.129Z,2352.00
2022-11-25T09:30:33.198Z,2308.00
2022-11-25T09:31:33.617Z,2220.00
2022-11-25T09:32:33.797Z,2144.00
2022-11-25T09:33:34.056Z,2020.00
2022-11-25T09:34:34.491Z,1900.00
2022-11-25T09:35:34.626Z,1816.00
2022-11-25T09:36:34.916Z,1816.00
2022-11-25T09:37:35.233Z,1668.00
2022-11-25T09:38:38.874Z,1540.00
2022-11-25T09:39:37.222Z,1604.00
2022-11-25T09:40:36.147Z,1724.00
2022-11-25T09:41:36.338Z,1704.00
2022-11-25T09:42:36.838Z,1668.00
2022-11-25T09:43:37.829Z,1624.00
2022-11-25T09:44:37.156Z,1636.00
2022-11-25T09:45:37.500Z,1672.00
2022-11-25T09:46:37.751Z,1776.00
2022-11-25T09:47:41.156Z,1856.00
2022-11-25T09:48:39.209Z,1872.00
2022-11-25T09:49:38.709Z,1900.00
2022-11-25T09:50:38.706Z,1892.00
2022-11-25T09:51:38.978Z,2020.00
2022-11-25T09:52:39.241Z,2056.00
2022-11-25T09:53:39.531Z,2064.00
2022-11-25T09:54:39.922Z,2176.00
2022-11-25T09:55:40.151Z,2140.00
2022-11-25T09:56:40.349Z,2064.00
2022-11-25T09:57:40.640Z,2172.00
2022-11-25T09:58:40.968Z,2224.00
2022-11-25T09:59:41.271Z,2364.00
2022-11-25T10:00:41.550Z,2480.00
2022-11-25T10:01:42.002Z,2320.00
2022-11-25T10:02:42.250Z,2108.00
2022-11-25T10:03:42.579Z,2192.00
2022-11-25T10:04:42.744Z,2308.00
2022-11-25T10:05:43.043Z,2536.00
2022-11-25T10:06:43.458Z,2780.00
2022-11-25T10:07:43.665Z,2704.00
2022-11-25T10:08:43.831Z,2536.00
2022-11-25T10:09:44.374Z,2412.00
2022-11-25T10:10:44.395Z,2348.00
2022-11-25T10:11:44.688Z,2380.00
2022-11-25T10:12:45.006Z,2440.00
2022-11-25T10:13:45.282Z,2372.00
2022-11-25T10:14:46.114Z,2364.00
2022-11-25T10:15:45.973Z,2432.00
2022-11-25T10:16:51.265Z,2548.00
2022-11-25T10:17:47.423Z,2648.00
2022-11-25T10:18:47.411Z,2684.00
2022-11-25T10:19:46.957Z,2684.00
2022-11-25T10:20:47.241Z,2584.00
2022-11-25T10:21:47.543Z,2512.00
2022-11-25T10:22:47.883Z,2596.00
2022-11-25T10:23:48.164Z,2800.00
2022-11-25T10:24:48.466Z,2868.00
2022-11-25T10:25:48.747Z,2744.00
2022-11-25T10:26:49.026Z,2512.00
2022-11-25T10:27:49.357Z,2344.00
2022-11-25T10:28:49.653Z,2356.00
2022-11-25T10:29:49.999Z,2332.00
2022-11-25T10:30:50.266Z,2044.00
2022-11-25T10:31:50.573Z,1944.00
2022-11-25T10:32:50.906Z,1796.00
2022-11-25T10:33:51.050Z,1820.00
2022-11-25T10:34:51.497Z,2088.00
2022-11-25T10:35:51.647Z,2136.00
2022-11-25T10:36:51.964Z,2312.00
2022-11-25T10:37:52.292Z,2412.00
2022-11-25T10:38:52.572Z,2404.00
2022-11-25T10:39:52.909Z,2432.00
2022-11-25T10:40:53.218Z,2476.00
2022-11-25T10:41:53.536Z,2928.00
2022-11-25T10:42:53.828Z,2836.00
2022-11-25T10:43:54.178Z,2560.00
2022-11-25T10:44:54.400Z,2316.00
2022-11-25T10:45:54.721Z,2272.00
2022-11-25T10:47:13.559Z,2240.00
2022-11-25T10:47:56.434Z,2556.00
2022-11-25T10:48:55.563Z,2224.00
2022-11-25T10:49:55.823Z,1944.00
2022-11-25T10:50:56.037Z,2028.00
2022-11-25T10:51:56.321Z,1832.00
2022-11-25T10:52:56.768Z,1912.00
2022-11-25T10:53:56.952Z,2016.00
2022-11-25T10:54:57.120Z,1988.00
2022-11-25T10:55:57.421Z,1740.00
2022-11-25T10:56:57.774Z,1908.00
2022-11-25T10:57:57.973Z,2176.00
2022-11-25T10:58:58.233Z,1764.00
2022-11-25T10:59:58.532Z,1460.00
2022-11-25T11:00:58.905Z,1516.00
2022-11-25T11:01:59.142Z,1640.00
2022-11-25T11:02:59.521Z,2092.00
2022-11-25T11:03:59.639Z,2680.00
2022-11-25T11:05:00.696Z,2564.00
2022-11-25T11:06:00.175Z,2128.00
2022-11-25T11:07:00.462Z,2184.00
2022-11-25T11:08:00.830Z,1852.00
2022-11-25T11:09:01.003Z,2152.00
2022-11-25T11:10:01.294Z,2220.00
2022-11-25T11:11:01.584Z,2628.00
2022-11-25T11:12:01.884Z,2648.00
2022-11-25T11:13:02.155Z,2524.00
2022-11-25T11:14:02.424Z,2648.00
2022-11-25T11:15:02.778Z,2876.00
2022-11-25T11:16:03.070Z,2408.00
2022-11-25T11:17:03.357Z,2388.00
2022-11-25T11:18:03.676Z,2060.00
2022-11-25T11:19:03.958Z,1440.00
2022-11-25T11:20:04.255Z,1756.00
2022-11-25T11:21:04.547Z,1856.00
2022-11-25T11:22:05.537Z,1720.00
2022-11-25T11:23:08.940Z,1744.00
2022-11-25T11:24:05.441Z,2128.00
2022-11-25T11:25:05.748Z,2524.00
2022-11-25T11:26:06.038Z,2724.00
2022-11-25T11:27:06.300Z,3040.00
2022-11-25T11:28:06.648Z,2660.00
2022-11-25T11:29:12.666Z,2152.00
2022-11-25T11:30:08.240Z,2368.00
2022-11-25T11:31:07.493Z,2468.00
2022-11-25T11:32:07.777Z,2600.00
2022-11-25T11:33:08.056Z,2560.00
2022-11-25T11:34:08.329Z,2776.00
2022-11-25T11:35:08.639Z,3048.00
2022-11-25T11:36:08.878Z,2764.00
2022-11-25T11:37:09.158Z,2624.00
2022-11-25T11:38:09.449Z,2408.00
2022-11-25T11:39:09.761Z,2052.00
2022-11-25T11:40:10.076Z,1952.00
2022-11-25T11:41:10.352Z,1880.00
2022-11-25T11:42:10.669Z,2052.00
2022-11-25T11:43:10.961Z,2240.00
2022-11-25T11:44:11.241Z,2148.00
2022-11-25T11:45:11.535Z,1948.00
2022-11-25T11:46:11.898Z,2176.00
2022-11-25T11:47:12.083Z,2516.00
2022-11-25T11:48:12.379Z,2612.00
2022-11-25T11:49:12.643Z,2684.00
2022-11-25T11:50:12.964Z,2704.00
2022-11-25T11:51:13.239Z,2800.00
2022-11-25T11:52:13.491Z,2500.00
2022-11-25T11:53:14.412Z,2860.00
2022-11-25T11:54:14.163Z,2600.00
2022-11-25T11:55:14.488Z,2060.00
2022-11-25T11:57:16.073Z,1632.00
2022-11-25T11:58:15.293Z,1484.00
2022-11-25T11:59:15.592Z,1424.00
2022-11-25T12:00:16.333Z,1364.00
2022-11-25T12:01:16.192Z,1376.00
2022-11-25T12:02:16.569Z,1432.00
2022-11-25T12:03:16.865Z,1644.00
2022-11-25T12:04:17.076Z,1884.00
2022-11-25T12:05:17.426Z,2144.00
2022-11-25T12:06:17.648Z,2304.00
2022-11-25T12:07:17.867Z,2296.00
2022-11-25T12:08:18.136Z,2096.00
2022-11-25T12:09:18.398Z,1776.00
2022-11-25T12:10:18.705Z,1816.00
2022-11-25T12:11:18.985Z,1800.00
2022-11-25T12:12:19.310Z,2048.00
2022-11-25T12:13:19.597Z,2488.00
2022-11-25T12:14:19.891Z,2992.00
2022-11-25T12:15:20.188Z,3508.00
2022-11-25T12:16:20.539Z,3616.00
2022-11-25T12:17:20.709Z,3176.00
2022-11-25T12:18:21.009Z,2576.00
2022-11-25T12:19:21.319Z,2624.00
2022-11-25T12:20:21.630Z,3056.00
2022-11-25T12:21:21.940Z,3208.00
2022-11-25T12:22:22.250Z,3352.00
2022-11-25T12:23:22.531Z,3244.00
2022-11-25T12:24:22.861Z,3172.00
2022-11-25T12:25:23.134Z,3256.00
2022-11-25T12:26:23.300Z,3092.00
2022-11-25T12:27:23.620Z,2808.00
2022-11-25T12:28:23.910Z,2712.00
2022-11-25T12:29:24.189Z,2788.00
2022-11-25T12:30:24.519Z,2780.00
2022-11-25T12:31:24.826Z,2616.00
2022-11-25T12:32:25.132Z,2496.00
2022-11-25T12:33:25.402Z,2540.00
2022-11-25T12:34:25.684Z,2652.00
2022-11-25T12:35:25.991Z,2904.00
2022-11-25T12:36:26.271Z,2752.00
2022-11-25T12:37:26.574Z,2648.00
2022-11-25T12:38:26.882Z,2928.00
2022-11-25T12:39:27.167Z,3088.00
2022-11-25T12:40:27.475Z,3208.00
2022-11-25T12:41:27.742Z,3208.00
2022-11-25T12:42:28.032Z,2980.00
2022-11-25T12:43:28.303Z,2800.00
2022-11-25T12:44:28.593Z,2684.00
2022-11-25T12:45:28.955Z,2564.00
2022-11-25T12:46:29.234Z,2408.00
2022-11-25T12:47:29.546Z,2500.00
2022-11-25T12:48:29.813Z,2432.00
2022-11-25T12:49:30.092Z,2236.00
2022-11-25T12:50:30.405Z,2156.00